Time;durP1;ratioP1;P1;durP2;ratioP2;P2;SDS_P1;SDS_P2;PMS_P1;PMS_P2;Temp;Humidity;BMP_temperature;BMP_pressure;BME280_temperature;BME280_humidity;BME280_pressure;Samples;Min_cycle;Max_cycle;Signal;HPM_P1;HPM_P2
2022/03/13 00:03:01;;;;;;;106.47;50.72;;;;;;;-7.01;72.18;98880.63;10331184;28;20065;-60
2022/03/13 00:08:02;;;;;;;385.90;163.27;;;;;;;-7.04;72.71;98880.31;10335466;28;20534;-61
2022/03/13 00:13:04;;;;;;;45.80;25.63;;;;;;;-7.27;73.32;98861.59;10335161;28;20064;-61
2022/03/13 00:18:03;;;;;;;43.63;24.27;;;;;;;-7.22;73.56;98867.94;10335694;28;20057;-61
2022/03/13 00:23:02;;;;;;;;;;;;;;;-7.24;73.60;98866.91;10335544;28;20030;-61
2022/03/13 00:28:02;;;;;;;38.85;22.92;;;;;;;-7.24;73.60;98882.03;10334047;28;20295;-61
2022/03/13 00:33:02;;;;;;;41.85;22.33;;;;;;;-7.28;73.70;98854.78;10331636;28;20056;-61
2022/03/13 00:38:01;;;;;;;42.97;22.10;;;;;;;-7.39;73.68;98855.53;10334456;28;20068;-61
2022/03/13 00:43:00;;;;;;;;;;;;;;;-7.46;74.67;98859.13;10334761;28;20033;-61
2022/03/13 00:48:00;;;;;;;51.23;27.37;;;;;;;-7.81;74.29;98801.53;10333565;28;19921;-61
2022/03/13 00:52:58;;;;;;;88.32;39.92;;;;;;;-7.80;74.50;98815.00;10334230;28;20056;-61
2022/03/13 00:57:57;;;;;;;;;;;;;;;-7.57;74.93;98853.91;10334065;28;20129;-61
2022/03/13 01:02:56;;;;;;;85.20;38.10;;;;;;;-7.81;74.18;98813.25;10331252;28;19917;-61
2022/03/13 01:07:56;;;;;;;;;;;;;;;-7.57;74.01;98841.31;10375060;28;20060;-61
2022/03/13 01:12:55;;;;;;;69.25;34.17;;;;;;;-7.60;73.47;98829.34;10374074;28;19951;-61
2022/03/13 01:17:54;;;;;;;62.67;31.23;;;;;;;-7.67;73.23;98827.91;10372942;28;20060;-61
2022/03/13 01:22:52;;;;;;;;;;;;;;;-7.70;72.66;98826.75;10374432;28;20119;-61
2022/03/13 01:27:51;;;;;;;60.33;29.47;;;;;;;-7.73;73.58;98823.97;10373720;28;19962;-61
2022/03/13 01:32:54;;;;;;;;;;;;;;;-7.76;72.48;98832.16;10374006;28;20032;-61
2022/03/13 01:37:53;;;;;;;58.17;29.42;;;;;;;-7.80;73.13;98825.06;10330712;28;20379;-61
2022/03/13 01:42:55;;;;;;;49.40;25.45;;;;;;;-7.83;72.48;98828.22;10332529;28;20195;-61
2022/03/13 01:47:54;;;;;;;49.83;26.98;;;;;;;-8.27;73.44;98749.63;10331131;28;20144;-61
2022/03/13 01:52:53;;;;;;;58.85;29.13;;;;;;;-7.86;73.32;98825.44;10331940;28;20474;-61
2022/03/13 01:57:51;;;;;;;;;;;;;;;-7.84;72.42;98823.03;10332078;28;20384;-61
2022/03/13 02:02:51;;;;;;;44.50;22.47;;;;;;;-7.84;72.34;98826.41;10331469;28;20018;-61
2022/03/13 02:07:50;;;;;;;76.72;34.95;;;;;;;-7.80;72.49;98825.06;10328299;28;20156;-61
2022/03/13 02:12:49;;;;;;;;;;;;;;;-7.85;72.42;98821.28;10331679;28;20213;-61
2022/03/13 02:17:48;;;;;;;30.40;14.13;;;;;;;-8.10;73.15;98783.84;10331843;28;19919;-60
2022/03/13 02:22:47;;;;;;;82.35;33.03;;;;;;;-7.89;73.00;98819.22;10331257;28;20514;-61
2022/03/13 02:27:46;;;;;;;33.03;17.35;;;;;;;-7.96;72.20;98816.91;10330466;28;20053;-61
2022/03/13 02:32:45;;;;;;;;;;;;;;;-8.01;72.35;98830.00;10332167;28;20025;-61
2022/03/13 02:37:43;;;;;;;40.27;20.73;;;;;;;-8.13;72.72;98798.69;10326299;28;20009;-61
2022/03/13 02:42:42;;;;;;;43.92;21.13;;;;;;;-8.22;73.10;98770.19;10330588;28;20021;-61
2022/03/13 02:47:41;;;;;;;;;;;;;;;-7.92;73.73;98811.41;10331501;28;20511;-64
2022/03/13 02:52:41;;;;;;;53.27;24.23;;;;;;;-8.07;72.81;98786.66;10338403;28;19971;-61
2022/03/13 02:57:40;;;;;;;39.45;20.73;;;;;;;-8.03;72.90;98787.78;10339012;28;20064;-60
2022/03/13 03:02:39;;;;;;;56.45;27.05;;;;;;;-7.96;73.66;98794.25;10339283;28;20068;-60
2022/03/13 03:07:38;;;;;;;;;;;;;;;-7.86;73.90;98806.88;10335562;28;20026;-60
2022/03/13 03:12:37;;;;;;;43.53;21.70;;;;;;;-8.04;73.61;98789.44;10338393;28;19963;-61
2022/03/13 03:17:36;;;;;;;40.05;19.70;;;;;;;-7.97;74.71;98808.50;10337568;28;20053;-61
2022/03/13 03:22:35;;;;;;;;;;;;;;;-7.90;75.09;98812.44;10337836;28;20033;-61
2022/03/13 03:27:34;;;;;;;47.17;23.67;;;;;;;-8.50;74.68;98750.13;10337592;28;19913;-61
2022/03/13 03:32:33;;;;;;;77.75;34.05;;;;;;;-7.98;75.27;98813.38;10335491;28;20065;-61
2022/03/13 03:37:33;;;;;;;;;;;;;;;-7.89;75.52;98799.06;10333952;28;20067;-61
2022/03/13 03:42:33;;;;;;;49.58;23.27;;;;;;;-7.80;74.56;98804.91;10337550;28;19952;-61
2022/03/13 03:47:32;;;;;;;44.80;22.88;;;;;;;-7.98;74.64;98740.34;10336433;28;20069;-61
2022/03/13 03:52:31;;;;;;;44.13;21.02;;;;;;;-7.63;74.78;98786.22;10334818;28;20072;-61
2022/03/13 03:57:30;;;;;;;;;;;;;;;-7.60;74.52;98784.84;10337121;28;20030;-61
2022/03/13 04:02:29;;;;;;;52.70;24.90;;;;;;;-7.53;75.15;98785.34;10334992;28;19952;-61
2022/03/13 04:07:28;;;;;;;;;;;;;;;-7.44;73.83;98791.19;10335985;28;20030;-61
2022/03/13 04:12:28;;;;;;;274.00;80.17;;;;;;;-7.81;74.42;98720.03;10332977;28;19987;-61
2022/03/13 04:17:31;;;;;;;59.15;28.27;;;;;;;-7.44;73.90;98771.00;10335647;28;20159;-61
2022/03/13 04:22:29;;;;;;;75.90;33.00;;;;;;;-7.67;73.24;98716.13;10335441;28;20559;-61
2022/03/13 04:27:31;;;;;;;;;;;;;;;-7.17;73.44;98788.50;10335956;28;20570;-61
2022/03/13 04:32:31;;;;;;;58.38;29.15;;;;;;;-7.17;73.98;98764.91;10334962;28;20335;-61
2022/03/13 04:37:30;;;;;;;70.07;35.30;;;;;;;-7.19;73.21;98747.13;10334006;28;20061;-60
2022/03/13 04:42:28;;;;;;;;;;;;;;;-6.99;73.43;98778.19;10330184;28;20095;-61
2022/03/13 04:47:31;;;;;;;88.27;46.63;;;;;;;-7.52;74.00;98714.91;10334076;28;19942;-61
2022/03/13 04:52:30;;;;;;;75.95;37.58;;;;;;;-7.72;74.54;98715.75;10334360;28;20087;-60
2022/03/13 04:57:29;;;;;;;;;;;;;;;-7.34;75.05;98782.75;10333997;28;20111;-61
2022/03/13 05:02:28;;;;;;;53.65;27.92;;;;;;;-7.34;75.53;98777.72;10334157;28;19909;-61
2022/03/13 05:07:27;;;;;;;;;;;;;;;-7.37;75.98;98775.81;10334189;28;20064;-61
2022/03/13 05:12:28;;;;;;;47.97;25.13;;;;;;;-7.49;75.85;98757.13;10348937;28;19946;-63
2022/03/13 05:17:27;;;;;;;51.63;28.00;;;;;;;-7.28;75.56;98770.69;10373972;28;20087;-61
2022/03/13 05:22:26;;;;;;;;;;;;;;;-7.15;76.21;98770.97;10336258;28;20430;-61
2022/03/13 05:27:25;;;;;;;70.18;34.80;;;;;;;-7.05;76.37;98775.16;10331555;28;19945;-61
2022/03/13 05:32:24;;;;;;;;;;;;;;;-6.82;75.64;98774.50;10333059;28;20029;-61
2022/03/13 05:37:24;;;;;;;79.30;42.67;;;;;;;-6.95;75.74;98715.50;10332854;28;19959;-61
2022/03/13 05:42:25;;;;;;;103.05;52.53;;;;;;;-6.43;75.30;98781.94;10332610;28;20491;-61
2022/03/13 05:47:24;;;;;;;98.57;54.90;;;;;;;-6.35;75.18;98780.91;10330994;28;20498;-61
2022/03/13 05:52:23;;;;;;;85.68;48.72;;;;;;;-6.25;74.97;98774.97;10332104;28;20447;-62
2022/03/13 05:57:22;;;;;;;98.57;55.63;;;;;;;-6.09;74.20;98788.06;10331408;28;20052;-61
2022/03/13 06:02:22;;;;;;;92.95;53.40;;;;;;;-5.99;74.79;98784.63;10331213;28;20156;-61
2022/03/13 06:07:21;;;;;;;108.32;62.28;;;;;;;-5.85;73.85;98792.44;10331683;28;20056;-61
2022/03/13 06:12:20;;;;;;;97.10;58.42;;;;;;;-5.73;73.95;98794.31;10330882;28;20055;-61
2022/03/13 06:17:19;;;;;;;215.20;113.70;;;;;;;-5.76;72.96;98742.59;10330730;28;20039;-61
2022/03/13 06:22:19;;;;;;;85.78;47.42;;;;;;;-5.29;73.46;98803.56;10329338;28;20065;-61
2022/03/13 06:27:18;;;;;;;134.35;76.38;;;;;;;-5.45;72.45;98745.84;10330706;28;20497;-61
2022/03/13 06:32:17;;;;;;;82.95;47.20;;;;;;;-5.01;72.42;98786.34;10350221;28;20044;-61
2022/03/13 06:37:16;;;;;;;;;;;;;;;-4.95;71.01;98781.75;10372423;28;20092;-61
2022/03/13 06:42:15;;;;;;;85.18;51.55;;;;;;;-5.29;72.35;98742.88;10362789;28;19916;-61
2022/03/13 06:47:13;;;;;;;94.20;55.40;;;;;;;-4.95;72.43;98785.94;10330202;28;20054;-61
2022/03/13 06:52:12;;;;;;;118.90;65.55;;;;;;;-4.83;70.22;98786.84;10330779;28;20022;-61
2022/03/13 06:57:14;;;;;;;121.13;71.43;;;;;;;-4.72;69.90;98786.03;10330418;28;20040;-61
2022/03/13 07:02:13;;;;;;;130.95;71.78;;;;;;;-4.95;70.26;98740.38;10330149;28;20054;-61
2022/03/13 07:07:12;;;;;;;146.10;86.80;;;;;;;-5.07;70.08;98726.03;10328014;28;20032;-61
2022/03/13 07:12:12;;;;;;;128.05;73.55;;;;;;;-4.66;70.82;98785.59;10329644;28;20095;-62
2022/03/13 07:17:11;;;;;;;110.53;63.17;;;;;;;-4.59;69.73;98774.28;10329525;28;20526;-61
2022/03/13 07:22:12;;;;;;;110.10;66.63;;;;;;;-4.53;69.63;98746.88;10330220;28;20538;-61
2022/03/13 07:27:10;;;;;;;114.63;69.25;;;;;;;-4.35;69.78;98748.19;10329921;28;20064;-61
2022/03/13 07:32:10;;;;;;;109.05;64.82;;;;;;;-4.01;69.15;98768.41;10329471;28;20022;-61
2022/03/13 07:37:12;;;;;;;112.93;67.22;;;;;;;-3.73;67.75;98762.75;10334566;28;20182;-61
2022/03/13 07:42:12;;;;;;;119.97;67.78;;;;;;;-3.54;67.50;98770.91;10336592;28;20068;-61
2022/03/13 07:47:11;;;;;;;118.45;71.25;;;;;;;-3.39;66.58;98746.59;10336483;28;20088;-61
2022/03/13 07:52:10;;;;;;;110.30;65.38;;;;;;;-3.17;65.39;98755.69;10336425;28;20060;-61
2022/03/13 07:57:09;;;;;;;;;;;;;;;-2.91;65.36;98748.19;10336444;28;20056;-61
2022/03/13 08:02:08;;;;;;;96.45;61.55;;;;;;;-2.96;64.96;98682.63;10332665;28;19944;-61
2022/03/13 08:07:07;;;;;;;100.32;60.30;;;;;;;-2.75;64.71;98657.78;10332504;28;20071;-61
2022/03/13 08:12:07;;;;;;;88.85;56.17;;;;;;;-2.15;63.18;98726.06;10331406;28;20558;-61
2022/03/13 08:17:06;;;;;;;84.72;55.03;;;;;;;-2.04;62.83;98728.41;10333930;28;20065;-61
2022/03/13 08:22:05;;;;;;;101.65;60.65;;;;;;;-2.19;62.03;98655.47;10334297;28;20041;-61
2022/03/13 08:27:04;;;;;;;90.18;56.53;;;;;;;-1.70;60.29;98686.50;10335284;28;20948;-61
2022/03/13 08:32:03;;;;;;;82.75;51.17;;;;;;;-1.81;58.77;98628.09;10335112;28;20053;-61
2022/03/13 08:37:03;;;;;;;;;;;;;;;-1.21;56.43;98724.28;10335620;28;20071;-61
2022/03/13 08:42:03;;;;;;;65.93;41.70;;;;;;;-0.85;56.68;98707.75;10335445;28;20032;-61
2022/03/13 08:47:02;;;;;;;65.18;40.53;;;;;;;-0.85;54.69;98653.38;10333670;28;20081;-61
2022/03/13 08:52:01;;;;;;;57.40;38.03;;;;;;;-0.18;52.26;98707.34;10334233;28;20056;-61
2022/03/13 08:57:01;;;;;;;58.22;35.80;;;;;;;0.17;50.64;98690.53;10334254;28;20523;-61
2022/03/13 09:02:00;;;;;;;43.85;30.65;;;;;;;0.34;50.28;98700.00;10333676;28;20057;-61
2022/03/13 09:06:59;;;;;;;33.75;23.00;;;;;;;0.68;50.33;98691.59;10333528;28;20034;-61
2022/03/13 09:11:59;;;;;;;45.22;28.77;;;;;;;0.90;48.33;98697.03;10333215;28;20049;-61
2022/03/13 09:16:58;;;;;;;27.92;18.75;;;;;;;1.11;46.92;98683.63;10333183;28;20063;-61
2022/03/13 09:21:57;;;;;;;29.95;17.13;;;;;;;1.46;46.80;98681.97;10332721;28;20144;-61
2022/03/13 09:26:56;;;;;;;32.55;20.80;;;;;;;1.82;48.43;98670.06;10333298;28;20056;-61
2022/03/13 09:31:55;;;;;;;226.15;93.47;;;;;;;2.05;48.18;98673.72;10332555;28;20025;-61
2022/03/13 09:36:54;;;;;;;25.75;15.43;;;;;;;2.08;46.72;98645.69;10332236;28;20116;-61
2022/03/13 09:41:52;;;;;;;24.58;15.82;;;;;;;2.01;45.25;98592.47;10332562;28;20065;-61
2022/03/13 09:46:51;;;;;;;22.95;14.23;;;;;;;2.55;43.60;98659.81;10332092;28;20037;-61
2022/03/13 09:51:51;;;;;;;21.55;15.23;;;;;;;2.64;43.32;98643.97;10331740;28;20611;-61
2022/03/13 09:56:50;;;;;;;20.80;13.90;;;;;;;2.69;41.11;98641.63;10332517;28;20068;-62
2022/03/13 10:01:49;;;;;;;25.73;15.02;;;;;;;2.96;40.43;98645.38;10331375;28;20029;-61
2022/03/13 10:07:10;;;;;;;16.83;10.60;;;;;;;3.29;39.86;98637.38;10331428;28;20071;-61
2022/03/13 10:12:14;;;;;;;16.98;11.13;;;;;;;3.55;39.15;98632.44;10331332;28;20057;-61
2022/03/13 10:17:25;;;;;;;16.30;10.07;;;;;;;3.65;36.96;98611.47;10331109;28;20064;-62
2022/03/13 10:22:30;;;;;;;14.98;10.43;;;;;;;3.85;38.07;98612.25;10331013;28;20491;-62
2022/03/13 10:27:32;;;;;;;83.75;35.72;;;;;;;4.00;37.09;98619.69;10331557;28;20475;-61
2022/03/13 10:32:31;;;;;;;12.07;7.18;;;;;;;4.21;33.30;98609.34;10330362;28;20057;-61
2022/03/13 10:37:39;;;;;;;12.30;6.88;;;;;;;4.29;32.81;98608.84;10330866;28;20083;-61
2022/03/13 10:42:43;;;;;;;10.32;5.13;;;;;;;4.74;32.89;98591.59;10330690;28;20503;-61
2022/03/13 10:47:42;;;;;;;8.77;5.70;;;;;;;5.51;34.21;98598.53;10329115;28;20104;-61
2022/03/13 10:52:42;;;;;;;12.02;7.50;;;;;;;5.66;32.08;98515.75;10330673;28;20026;-62
2022/03/13 10:57:50;;;;;;;19.75;11.40;;;;;;;6.31;31.29;98582.97;10330598;28;20060;-62
2022/03/13 11:02:50;;;;;;;23.60;13.82;;;;;;;6.51;30.25;98585.22;10330560;28;20068;-62
2022/03/13 11:07:48;;;;;;;8.88;6.32;;;;;;;6.54;28.46;98575.91;10330258;28;20069;-62
2022/03/13 11:12:48;;;;;;;9.93;6.57;;;;;;;6.87;29.34;98569.03;10336415;28;20049;-62
2022/03/13 11:17:48;;;;;;;9.45;6.13;;;;;;;7.47;30.12;98563.72;10337043;28;20068;-62
2022/03/13 11:22:48;;;;;;;7.78;5.25;;;;;;;7.88;27.79;98556.94;10337704;28;20483;-63
2022/03/13 11:27:47;;;;;;;10.48;7.45;;;;;;;7.62;25.17;98553.75;10337007;28;20061;-60
2022/03/13 11:32:51;;;;;;;11.23;6.78;;;;;;;7.84;25.04;98543.91;10337624;28;20068;-60
2022/03/13 11:37:53;;;;;;;39.20;22.95;;;;;;;7.64;23.96;98513.34;10336875;28;20068;-60
2022/03/13 11:42:56;;;;;;;82.65;41.40;;;;;;;8.12;25.10;98560.03;10336680;28;20068;-60
2022/03/13 11:48:04;;;;;;;103.95;62.67;;;;;;;8.34;26.12;98554.47;10335750;28;20585;-60
2022/03/13 11:53:27;;;;;;;8.63;5.07;;;;;;;8.55;25.86;98553.16;10336652;28;20473;-62
2022/03/13 11:58:38;;;;;;;7.45;4.80;;;;;;;8.47;23.93;98548.69;10336405;28;20086;-61
2022/03/13 12:03:38;;;;;;;12.50;8.80;;;;;;;8.52;24.38;98541.91;10336597;28;20068;-62
2022/03/13 12:09:06;;;;;;;11.43;7.22;;;;;;;8.36;25.51;98547.59;10335834;28;20056;-62
2022/03/13 12:14:11;;;;;;;9.88;6.55;;;;;;;8.51;25.08;98544.47;10334191;28;20601;-60
2022/03/13 12:19:11;;;;;;;15.18;8.45;;;;;;;8.59;25.87;98545.47;10335531;28;20506;-60
2022/03/13 12:24:15;;;;;;;18.95;9.75;;;;;;;8.64;25.46;98537.81;10334802;28;20068;-60
2022/03/13 12:29:17;;;;;;;13.70;8.23;;;;;;;8.55;25.06;98543.66;10334058;28;20075;-60
2022/03/13 12:34:32;;;;;;;10.27;6.72;;;;;;;8.11;23.34;98537.59;10334817;28;20111;-60
2022/03/13 12:39:31;;;;;;;10.20;5.97;;;;;;;8.33;26.15;98513.94;10335249;28;20507;-60
2022/03/13 12:44:30;;;;;;;14.02;8.90;;;;;;;8.33;23.73;98537.19;10333804;28;20519;-60
2022/03/13 12:49:32;;;;;;;17.55;11.57;;;;;;;8.23;24.77;98543.03;10334442;28;20068;-60
2022/03/13 12:54:33;;;;;;;50.38;29.23;;;;;;;7.90;24.67;98487.19;10334544;28;20065;-60
2022/03/13 12:59:46;;;;;;;20.33;16.60;;;;;;;7.99;23.28;98539.09;10333698;28;20494;-60
2022/03/13 13:04:47;;;;;;;21.60;10.98;;;;;;;7.75;24.65;98548.88;10333303;28;20062;-60
2022/03/13 13:09:48;;;;;;;9.63;5.85;;;;;;;7.64;24.04;98546.91;10332497;28;20076;-60
2022/03/13 13:14:50;;;;;;;17.27;11.48;;;;;;;7.22;25.39;98510.59;10292319;28;20088;-60
2022/03/13 13:19:50;;;;;;;8.13;5.43;;;;;;;7.50;25.18;98543.13;10291953;28;20072;-60
2022/03/13 13:24:54;;;;;;;7.57;4.75;;;;;;;7.47;26.44;98532.72;10325332;28;20064;-60
2022/03/13 13:29:53;;;;;;;9.35;5.60;;;;;;;7.71;25.39;98537.59;10332423;28;20563;-60
2022/03/13 13:35:03;;;;;;;10.30;6.45;;;;;;;7.83;27.38;98516.34;10332432;28;20455;-60
2022/03/13 13:40:11;;;;;;;;;;;;;;;8.12;24.39;98545.38;10333088;28;20100;-60
2022/03/13 13:45:19;;;;;;;22.00;14.88;;;;;;;8.17;25.21;98550.66;10332020;28;19948;-60
2022/03/13 13:50:24;;;;;;;22.02;13.50;;;;;;;7.71;25.27;98459.19;10332345;28;20059;-60
2022/03/13 13:55:23;;;;;;;10.07;8.05;;;;;;;8.21;23.99;98555.06;10331963;28;20069;-60
2022/03/13 14:00:29;;;;;;;132.20;62.45;;;;;;;7.75;25.35;98445.53;10331438;28;20067;-60
2022/03/13 14:05:28;;;;;;;211.63;95.18;;;;;;;8.32;25.09;98555.25;10331616;28;20073;-60
2022/03/13 14:10:27;;;;;;;119.88;58.88;;;;;;;7.80;24.98;98547.25;10331132;28;20053;-59
2022/03/13 14:15:26;;;;;;;13.73;7.47;;;;;;;7.24;25.39;98504.63;10331536;28;20065;-59
2022/03/13 14:20:26;;;;;;;47.20;31.05;;;;;;;7.28;25.00;98559.75;10331437;28;20057;-59
2022/03/13 14:25:25;;;;;;;14.13;8.95;;;;;;;7.08;25.93;98524.81;10331201;28;20548;-59
2022/03/13 14:30:24;;;;;;;22.02;14.13;;;;;;;7.28;25.24;98571.81;10331226;28;20510;-59
2022/03/13 14:35:23;;;;;;;34.00;19.85;;;;;;;7.35;26.09;98553.06;10330799;28;20064;-59
2022/03/13 14:40:22;;;;;;;14.82;10.45;;;;;;;7.36;25.78;98565.16;10330725;28;20112;-59
2022/03/13 14:45:22;;;;;;;11.07;8.05;;;;;;;7.29;25.15;98561.53;10333877;28;20080;-59
2022/03/13 14:50:21;;;;;;;9.38;5.60;;;;;;;7.13;26.77;98568.00;10337772;28;20064;-59
2022/03/13 14:55:20;;;;;;;35.05;28.55;;;;;;;6.50;27.46;98560.28;10338342;28;20029;-59
2022/03/13 15:00:19;;;;;;;31.55;18.08;;;;;;;5.46;28.62;98481.69;10338824;28;20068;-59
2022/03/13 15:05:18;;;;;;;28.80;19.17;;;;;;;5.63;29.28;98580.03;10338450;28;20068;-59
2022/03/13 15:10:18;;;;;;;18.30;12.88;;;;;;;5.38;29.66;98574.94;10337591;28;20068;-61
2022/03/13 15:15:19;;;;;;;16.20;11.18;;;;;;;5.24;29.63;98588.19;10338349;28;20072;-61
2022/03/13 15:20:18;;;;;;;16.98;10.75;;;;;;;5.11;29.38;98579.22;10337722;28;20076;-61
2022/03/13 15:25:19;;;;;;;11.77;7.70;;;;;;;5.14;29.55;98588.72;10337793;28;20061;-59
2022/03/13 15:30:18;;;;;;;19.02;12.88;;;;;;;4.91;29.63;98555.34;10337823;28;20075;-59
2022/03/13 15:35:18;;;;;;;31.98;20.45;;;;;;;4.90;30.51;98594.75;10336984;28;20061;-59
2022/03/13 15:40:18;;;;;;;25.80;18.23;;;;;;;4.77;30.62;98601.97;10337046;28;20067;-59
2022/03/13 15:45:17;;;;;;;48.63;26.50;;;;;;;4.46;31.28;98598.31;10336941;28;20080;-59
2022/03/13 15:50:16;;;;;;;25.85;16.35;;;;;;;4.41;31.65;98617.81;10336537;28;20061;-61
2022/03/13 15:55:16;;;;;;;28.20;18.67;;;;;;;4.32;31.75;98628.63;10336521;28;20069;-59
2022/03/13 16:00:15;;;;;;;45.40;26.88;;;;;;;3.94;31.84;98583.47;10336462;28;20072;-59
2022/03/13 16:05:17;;;;;;;60.28;32.10;;;;;;;4.03;32.80;98638.66;10336233;28;20076;-59
2022/03/13 16:10:17;;;;;;;64.20;38.97;;;;;;;3.83;33.46;98649.84;10336038;28;20111;-59
2022/03/13 16:15:18;;;;;;;52.00;31.10;;;;;;;3.67;33.09;98655.16;10335953;28;20068;-61
2022/03/13 16:20:18;;;;;;;47.90;29.55;;;;;;;3.54;33.58;98654.69;10335483;28;20072;-61
2022/03/13 16:25:17;;;;;;;44.67;28.38;;;;;;;3.40;35.27;98663.47;10334896;28;20057;-61
2022/03/13 16:30:16;;;;;;;;;;;;;;;3.18;37.06;98669.38;10335893;28;20466;-61
2022/03/13 16:35:15;;;;;;;43.30;26.02;;;;;;;2.74;38.26;98629.88;10334962;28;19957;-61
2022/03/13 16:40:15;;;;;;;41.75;24.35;;;;;;;2.61;39.54;98658.34;10334864;28;20075;-61
2022/03/13 16:45:14;;;;;;;;;;;;;;;2.51;40.09;98686.13;10335661;28;20080;-61
2022/03/13 16:50:13;;;;;;;41.72;27.17;;;;;;;2.25;40.51;98695.13;10334599;28;19956;-62
2022/03/13 16:55:12;;;;;;;;;;;;;;;1.99;40.98;98704.16;10334588;28;20061;-61
2022/03/13 17:00:12;;;;;;;62.95;35.20;;;;;;;1.54;41.48;98680.66;10332799;28;19936;-61
2022/03/13 17:05:12;;;;;;;60.42;37.00;;;;;;;1.47;43.24;98704.16;10333569;28;20068;-61
2022/03/13 17:10:12;;;;;;;52.97;34.50;;;;;;;1.25;43.99;98703.09;10332596;28;20069;-61
2022/03/13 17:15:11;;;;;;;47.72;29.60;;;;;;;0.67;43.86;98654.09;10331898;28;20137;-61
2022/03/13 17:20:12;;;;;;;;;;;;;;;0.87;44.02;98717.34;10334350;28;20072;-61
2022/03/13 17:25:11;;;;;;;31.02;19.25;;;;;;;0.68;44.79;98722.25;10332961;28;19992;-61
2022/03/13 17:30:11;;;;;;;;;;;;;;;0.51;45.27;98733.25;10333328;28;20068;-63
2022/03/13 17:35:12;;;;;;;41.80;24.83;;;;;;;0.36;47.03;98763.91;10332163;28;20386;-61
2022/03/13 17:40:11;;;;;;;57.00;34.22;;;;;;;0.19;46.58;98768.94;10331895;28;20083;-61
2022/03/13 17:45:14;;;;;;;77.68;47.40;;;;;;;0.03;47.27;98766.31;10330779;28;20087;-60
2022/03/13 17:50:13;;;;;;;80.32;48.45;;;;;;;-0.02;47.74;98775.41;10332255;28;20048;-60
2022/03/13 17:55:13;;;;;;;73.72;45.17;;;;;;;-0.06;47.86;98770.94;10331802;28;20076;-60
2022/03/13 18:00:13;;;;;;;68.13;40.08;;;;;;;-0.14;48.93;98774.72;10331319;28;20065;-60
2022/03/13 18:05:13;;;;;;;71.68;45.03;;;;;;;-0.25;49.38;98781.72;10332072;28;20064;-61
2022/03/13 18:10:12;;;;;;;89.53;52.17;;;;;;;-0.33;50.08;98799.16;10327718;28;20049;-60
2022/03/13 18:15:11;;;;;;;82.50;51.63;;;;;;;-0.46;51.08;98792.47;10331344;28;20569;-60
2022/03/13 18:20:11;;;;;;;75.95;50.58;;;;;;;-0.64;51.64;98806.66;10329923;28;20072;-60
2022/03/13 18:25:10;;;;;;;68.75;41.72;;;;;;;-0.90;51.33;98785.59;10330736;28;20061;-60
2022/03/13 18:30:09;;;;;;;;;;;;;;;-0.84;52.26;98819.09;10331486;28;20542;-60
2022/03/13 18:35:11;;;;;;;73.78;44.78;;;;;;;-0.97;52.46;98823.34;10329336;28;19939;-60
2022/03/13 18:40:11;;;;;;;85.47;52.70;;;;;;;-1.08;55.27;98833.72;10293730;28;20077;-60
2022/03/13 18:45:10;;;;;;;189.10;118.15;;;;;;;-1.24;55.03;98811.53;10330516;28;20076;-60
2022/03/13 18:50:10;;;;;;;110.60;69.32;;;;;;;-1.11;54.68;98846.28;10330351;28;20064;-60
2022/03/13 18:55:09;;;;;;;74.28;43.85;;;;;;;-1.30;55.03;98828.09;10329748;28;20467;-61
2022/03/13 19:00:08;;;;;;;;;;;;;;;-1.28;54.77;98855.44;10330944;28;20495;-60
2022/03/13 19:05:08;;;;;;;51.43;33.73;;;;;;;-1.54;54.57;98840.16;10330417;28;19944;-60
2022/03/13 19:10:08;;;;;;;39.03;25.20;;;;;;;-1.49;54.24;98862.59;10328944;28;20056;-60
2022/03/13 19:15:12;;;;;;;69.43;40.40;;;;;;;-1.51;55.35;98873.47;10326767;28;20069;-61
2022/03/13 19:20:15;;;;;;;75.28;44.75;;;;;;;-1.57;55.09;98873.06;10329824;28;20091;-61
2022/03/13 19:25:14;;;;;;;73.85;42.80;;;;;;;-1.59;55.58;98889.88;10329217;28;20521;-60
2022/03/13 19:30:14;;;;;;;70.07;39.85;;;;;;;-1.66;55.91;98898.78;10331123;28;20061;-60
2022/03/13 19:35:13;;;;;;;69.18;40.05;;;;;;;-1.72;56.00;98906.91;10337610;28;20064;-60
2022/03/13 19:40:13;;;;;;;;;;;;;;;-1.79;57.54;98904.75;10336976;28;20065;-60
2022/03/13 19:45:12;;;;;;;84.37;46.30;;;;;;;-1.85;58.30;98909.41;10333296;28;19967;-60
2022/03/13 19:50:13;;;;;;;95.75;57.75;;;;;;;-2.03;59.45;98910.72;10335861;28;20069;-60
2022/03/13 19:55:16;;;;;;;127.55;75.03;;;;;;;-2.19;60.34;98907.19;10336167;28;20061;-60
2022/03/13 20:00:20;;;;;;;120.63;69.53;;;;;;;-2.16;61.18;98931.94;10336093;28;20060;-60
2022/03/13 20:05:22;;;;;;;99.70;57.97;;;;;;;-2.14;60.83;98926.16;10335999;28;20065;-60
2022/03/13 20:10:26;;;;;;;261.02;113.57;;;;;;;-2.50;60.66;98869.53;10335540;28;20057;-60
2022/03/13 20:15:25;;;;;;;153.32;76.55;;;;;;;-2.19;61.23;98944.44;10332091;28;20063;-60
2022/03/13 20:20:25;;;;;;;160.90;79.07;;;;;;;-2.41;62.07;98922.63;10335094;28;20060;-60
2022/03/13 20:25:24;;;;;;;131.00;73.43;;;;;;;-2.35;61.91;98933.22;10335127;28;20071;-60
2022/03/13 20:30:25;;;;;;;117.28;61.72;;;;;;;-2.37;62.25;98936.44;10334984;28;20107;-60
2022/03/13 20:35:25;;;;;;;164.10;80.60;;;;;;;-2.52;62.77;98948.97;10334723;28;20072;-60
2022/03/13 20:40:24;;;;;;;121.57;64.25;;;;;;;-2.55;64.09;98957.25;10334430;28;20069;-60
2022/03/13 20:45:23;;;;;;;;;;;;;;;-2.60;65.33;98958.59;10330357;28;20088;-60
2022/03/13 20:50:23;;;;;;;143.60;75.35;;;;;;;-2.59;66.07;98965.44;10334662;28;19908;-60
2022/03/13 20:55:22;;;;;;;112.90;58.58;;;;;;;-2.67;66.21;98956.41;10334129;28;20061;-59
2022/03/13 21:00:22;;;;;;;401.25;180.38;;;;;;;-3.16;66.58;98892.00;10333463;28;20072;-60
2022/03/13 21:05:23;;;;;;;128.43;71.32;;;;;;;-2.69;66.60;98978.25;10333386;28;20072;-60
2022/03/13 21:10:22;;;;;;;128.13;72.75;;;;;;;-2.67;66.40;98976.72;10332912;28;20063;-60
2022/03/13 21:15:21;;;;;;;;;;;;;;;-2.65;66.14;98977.72;10330065;28;20068;-59
2022/03/13 21:20:20;;;;;;;123.07;62.92;;;;;;;-2.69;65.76;98973.19;10333361;28;19913;-59
2022/03/13 21:25:19;;;;;;;104.72;53.78;;;;;;;-2.73;65.48;98976.31;10332918;28;20068;-59
2022/03/13 21:30:19;;;;;;;151.20;69.13;;;;;;;-2.77;65.49;98980.28;10331502;28;20061;-59
2022/03/13 21:35:19;;;;;;;128.23;59.92;;;;;;;-2.81;65.48;98979.94;10332812;28;20065;-59
2022/03/13 21:40:18;;;;;;;;;;;;;;;-2.89;65.59;98993.78;10332502;28;20072;-59
2022/03/13 21:45:18;;;;;;;127.70;62.72;;;;;;;-2.96;66.08;99003.47;10328207;28;19936;-59
2022/03/13 21:50:17;;;;;;;122.13;61.75;;;;;;;-3.10;66.69;98994.00;10332333;28;20486;-59
2022/03/13 21:55:17;;;;;;;;;;;;;;;-3.10;66.77;99004.16;10332562;28;20068;-59
2022/03/13 22:00:17;;;;;;;91.67;51.00;;;;;;;-3.20;67.52;98995.00;10331507;28;19952;-59
2022/03/13 22:05:16;;;;;;;142.57;78.32;;;;;;;-3.24;67.83;98994.66;10332267;28;20064;-59
2022/03/13 22:10:18;;;;;;;112.07;62.28;;;;;;;-3.26;69.17;99016.50;10331688;28;20486;-59
2022/03/13 22:15:17;;;;;;;159.70;91.38;;;;;;;-3.64;68.39;98966.34;10327689;28;20064;-59
2022/03/13 22:20:17;;;;;;;195.85;109.95;;;;;;;-3.38;68.79;99024.97;10331819;28;20074;-59
2022/03/13 22:25:15;;;;;;;;;;;;;;;-3.45;69.50;99021.88;10331618;28;20465;-59
2022/03/13 22:30:19;;;;;;;158.13;84.25;;;;;;;-3.49;69.01;99027.50;10330675;28;19948;-59
2022/03/13 22:35:20;;;;;;;158.00;87.85;;;;;;;-3.50;68.67;99023.19;10331366;28;20061;-59
2022/03/13 22:40:20;;;;;;;167.25;91.57;;;;;;;-3.60;69.98;99032.66;10330524;28;20061;-60
2022/03/13 22:45:19;;;;;;;170.95;90.40;;;;;;;-3.86;70.65;99015.44;10330605;28;20541;-60
2022/03/13 22:50:19;;;;;;;158.00;88.38;;;;;;;-3.69;70.63;99049.72;10326194;28;20044;-60
2022/03/13 22:55:18;;;;;;;127.20;69.47;;;;;;;-3.70;70.45;99036.91;10330474;28;20104;-60
2022/03/13 23:00:17;;;;;;;121.13;68.68;;;;;;;-4.18;70.81;98975.88;10330420;28;20477;-60
2022/03/13 23:05:16;;;;;;;;;;;;;;;-3.73;70.97;99049.38;10331397;28;20065;-60
2022/03/13 23:10:15;;;;;;;102.50;56.95;;;;;;;-3.81;71.30;99054.75;10334486;28;19916;-60